sensor_id;sensor_type;location;lat;lon;timestamp;P1;durP1;ratioP1;P2;durP2;ratioP2
5813;SDS011;2933;52.302;8.134;2022-11-04T00:00:48;6.37;;;5.77;;
5813;SDS011;2933;52.302;8.134;2022-11-04T00:05:51;7.80;;;6.50;;
5813;SDS011;2933;52.302;8.134;2022-11-04T00:10:53;8.73;;;6.23;;
5813;SDS011;2933;52.302;8.134;2022-11-04T00:16:12;7.87;;;6.27;;
5813;SDS011;2933;52.302;8.134;2022-11-04T00:21:32;6.80;;;6.10;;
5813;SDS011;2933;52.302;8.134;2022-11-04T00:26:51;6.57;;;5.97;;
5813;SDS011;2933;52.302;8.134;2022-11-04T00:32:10;6.87;;;6.20;;
5813;SDS011;2933;52.302;8.134;2022-11-04T00:37:31;6.93;;;6.43;;
5813;SDS011;2933;52.302;8.134;2022-11-04T00:42:32;7.50;;;6.80;;
5813;SDS011;2933;52.302;8.134;2022-11-04T00:47:34;6.80;;;6.20;;
5813;SDS011;2933;52.302;8.134;2022-11-04T00:52:37;6.20;;;5.70;;
5813;SDS011;2933;52.302;8.134;2022-11-04T00:57:39;4.93;;;4.73;;
5813;SDS011;2933;52.302;8.134;2022-11-04T01:02:40;4.67;;;4.40;;
5813;SDS011;2933;52.302;8.134;2022-11-04T01:07:43;4.50;;;4.30;;
5813;SDS011;2933;52.302;8.134;2022-11-04T01:12:45;3.17;;;3.07;;
5813;SDS011;2933;52.302;8.134;2022-11-04T01:17:46;2.20;;;2.10;;
5813;SDS011;2933;52.302;8.134;2022-11-04T01:22:49;1.90;;;1.80;;
5813;SDS011;2933;52.302;8.134;2022-11-04T01:27:51;1.50;;;1.50;;
5813;SDS011;2933;52.302;8.134;2022-11-04T01:32:52;4.63;;;1.60;;
5813;SDS011;2933;52.302;8.134;2022-11-04T01:37:56;1.50;;;1.50;;
5813;SDS011;2933;52.302;8.134;2022-11-04T01:42:57;1.63;;;1.63;;
5813;SDS011;2933;52.302;8.134;2022-11-04T01:47:59;2.23;;;1.77;;
5813;SDS011;2933;52.302;8.134;2022-11-04T01:53:08;1.50;;;1.50;;
5813;SDS011;2933;52.302;8.134;2022-11-04T01:58:14;1.40;;;1.40;;
5813;SDS011;2933;52.302;8.134;2022-11-04T02:03:19;1.40;;;1.40;;
5813;SDS011;2933;52.302;8.134;2022-11-04T02:08:25;1.77;;;1.67;;
5813;SDS011;2933;52.302;8.134;2022-11-04T02:13:28;2.30;;;2.13;;
5813;SDS011;2933;52.302;8.134;2022-11-04T02:18:47;2.40;;;2.30;;
5813;SDS011;2933;52.302;8.134;2022-11-04T02:24:04;2.40;;;2.30;;
5813;SDS011;2933;52.302;8.134;2022-11-04T02:29:42;3.33;;;2.97;;
5813;SDS011;2933;52.302;8.134;2022-11-04T02:34:52;3.27;;;3.00;;
5813;SDS011;2933;52.302;8.134;2022-11-04T02:40:02;3.67;;;3.57;;
5813;SDS011;2933;52.302;8.134;2022-11-04T02:45:14;4.60;;;4.30;;
5813;SDS011;2933;52.302;8.134;2022-11-04T02:50:22;5.73;;;4.93;;
5813;SDS011;2933;52.302;8.134;2022-11-04T02:55:31;4.90;;;4.50;;
5813;SDS011;2933;52.302;8.134;2022-11-04T03:00:38;4.37;;;4.17;;
5813;SDS011;2933;52.302;8.134;2022-11-04T03:05:43;5.20;;;4.70;;
5813;SDS011;2933;52.302;8.134;2022-11-04T03:10:49;4.90;;;4.60;;
5813;SDS011;2933;52.302;8.134;2022-11-04T03:15:56;5.13;;;4.73;;
5813;SDS011;2933;52.302;8.134;2022-11-04T03:21:00;5.03;;;4.63;;
5813;SDS011;2933;52.302;8.134;2022-11-04T03:26:07;4.83;;;4.57;;
5813;SDS011;2933;52.302;8.134;2022-11-04T03:31:17;4.77;;;4.43;;
5813;SDS011;2933;52.302;8.134;2022-11-04T03:36:23;5.73;;;4.90;;
5813;SDS011;2933;52.302;8.134;2022-11-04T03:41:26;4.10;;;3.80;;
5813;SDS011;2933;52.302;8.134;2022-11-04T03:46:34;6.77;;;4.83;;
5813;SDS011;2933;52.302;8.134;2022-11-04T03:51:36;4.73;;;4.43;;
5813;SDS011;2933;52.302;8.134;2022-11-04T03:56:43;5.07;;;4.67;;
5813;SDS011;2933;52.302;8.134;2022-11-04T04:02:19;8.63;;;5.57;;
5813;SDS011;2933;52.302;8.134;2022-11-04T04:07:25;5.63;;;5.20;;
5813;SDS011;2933;52.302;8.134;2022-11-04T04:12:32;6.30;;;5.80;;
5813;SDS011;2933;52.302;8.134;2022-11-04T04:17:41;6.50;;;5.90;;
5813;SDS011;2933;52.302;8.134;2022-11-04T04:22:48;6.47;;;5.97;;
5813;SDS011;2933;52.302;8.134;2022-11-04T04:27:55;7.47;;;6.00;;
5813;SDS011;2933;52.302;8.134;2022-11-04T04:33:02;6.83;;;6.27;;
5813;SDS011;2933;52.302;8.134;2022-11-04T04:38:11;7.57;;;6.83;;
5813;SDS011;2933;52.302;8.134;2022-11-04T04:43:34;8.23;;;7.10;;
5813;SDS011;2933;52.302;8.134;2022-11-04T04:49:03;8.70;;;7.60;;
5813;SDS011;2933;52.302;8.134;2022-11-04T04:54:06;13.03;;;7.27;;
5813;SDS011;2933;52.302;8.134;2022-11-04T04:59:07;8.10;;;6.73;;
5813;SDS011;2933;52.302;8.134;2022-11-04T05:04:10;11.70;;;7.00;;
5813;SDS011;2933;52.302;8.134;2022-11-04T05:09:12;14.97;;;6.97;;
5813;SDS011;2933;52.302;8.134;2022-11-04T05:14:13;7.53;;;6.57;;
5813;SDS011;2933;52.302;8.134;2022-11-04T05:19:16;7.50;;;6.60;;
5813;SDS011;2933;52.302;8.134;2022-11-04T05:24:18;9.23;;;7.27;;
5813;SDS011;2933;52.302;8.134;2022-11-04T05:29:19;9.70;;;6.10;;
5813;SDS011;2933;52.302;8.134;2022-11-04T05:34:22;11.10;;;6.53;;
5813;SDS011;2933;52.302;8.134;2022-11-04T05:39:24;8.20;;;6.87;;
5813;SDS011;2933;52.302;8.134;2022-11-04T05:44:25;7.77;;;6.30;;
5813;SDS011;2933;52.302;8.134;2022-11-04T05:49:28;13.50;;;6.30;;
5813;SDS011;2933;52.302;8.134;2022-11-04T05:54:30;11.23;;;6.27;;
5813;SDS011;2933;52.302;8.134;2022-11-04T05:59:32;9.60;;;6.83;;
5813;SDS011;2933;52.302;8.134;2022-11-04T06:04:35;11.07;;;6.53;;
5813;SDS011;2933;52.302;8.134;2022-11-04T06:09:36;8.53;;;6.40;;
5813;SDS011;2933;52.302;8.134;2022-11-04T06:14:40;9.93;;;6.47;;
5813;SDS011;2933;52.302;8.134;2022-11-04T06:19:44;8.67;;;6.30;;
5813;SDS011;2933;52.302;8.134;2022-11-04T06:24:45;10.93;;;7.20;;
5813;SDS011;2933;52.302;8.134;2022-11-04T06:29:47;9.60;;;6.67;;
5813;SDS011;2933;52.302;8.134;2022-11-04T06:34:50;9.53;;;6.80;;
5813;SDS011;2933;52.302;8.134;2022-11-04T06:39:51;9.30;;;6.10;;
5813;SDS011;2933;52.302;8.134;2022-11-04T06:44:53;10.90;;;6.70;;
5813;SDS011;2933;52.302;8.134;2022-11-04T06:49:56;10.83;;;5.80;;
5813;SDS011;2933;52.302;8.134;2022-11-04T06:54:57;9.77;;;5.97;;
5813;SDS011;2933;52.302;8.134;2022-11-04T06:59:59;7.80;;;5.90;;
5813;SDS011;2933;52.302;8.134;2022-11-04T07:05:02;7.00;;;6.23;;
5813;SDS011;2933;52.302;8.134;2022-11-04T07:10:04;13.07;;;5.97;;
5813;SDS011;2933;52.302;8.134;2022-11-04T07:15:06;7.68;;;6.88;;
5813;SDS011;2933;52.302;8.134;2022-11-04T07:20:10;16.97;;;5.77;;
5813;SDS011;2933;52.302;8.134;2022-11-04T07:25:12;8.27;;;6.07;;
5813;SDS011;2933;52.302;8.134;2022-11-04T07:30:14;10.80;;;6.37;;
5813;SDS011;2933;52.302;8.134;2022-11-04T07:35:17;8.27;;;6.10;;
5813;SDS011;2933;52.302;8.134;2022-11-04T07:40:18;7.50;;;5.33;;
5813;SDS011;2933;52.302;8.134;2022-11-04T07:45:20;10.20;;;6.67;;
5813;SDS011;2933;52.302;8.134;2022-11-04T07:50:23;7.67;;;5.83;;
5813;SDS011;2933;52.302;8.134;2022-11-04T07:55:24;13.93;;;6.20;;
5813;SDS011;2933;52.302;8.134;2022-11-04T08:00:26;8.10;;;5.57;;
5813;SDS011;2933;52.302;8.134;2022-11-04T08:05:29;8.93;;;5.93;;
5813;SDS011;2933;52.302;8.134;2022-11-04T08:10:31;9.63;;;5.63;;
5813;SDS011;2933;52.302;8.134;2022-11-04T08:15:34;8.90;;;6.37;;
5813;SDS011;2933;52.302;8.134;2022-11-04T08:20:37;8.77;;;5.30;;
5813;SDS011;2933;52.302;8.134;2022-11-04T08:25:39;10.87;;;5.53;;
5813;SDS011;2933;52.302;8.134;2022-11-04T08:30:40;8.67;;;5.07;;
5813;SDS011;2933;52.302;8.134;2022-11-04T08:35:43;5.50;;;4.53;;
5813;SDS011;2933;52.302;8.134;2022-11-04T08:40:45;6.33;;;4.97;;
5813;SDS011;2933;52.302;8.134;2022-11-04T08:45:46;5.73;;;4.27;;
5813;SDS011;2933;52.302;8.134;2022-11-04T08:50:50;8.80;;;4.87;;
5813;SDS011;2933;52.302;8.134;2022-11-04T08:55:53;6.07;;;4.53;;
5813;SDS011;2933;52.302;8.134;2022-11-04T09:00:55;7.00;;;4.80;;
5813;SDS011;2933;52.302;8.134;2022-11-04T09:05:58;5.10;;;4.63;;
5813;SDS011;2933;52.302;8.134;2022-11-04T09:10:59;8.57;;;4.40;;
5813;SDS011;2933;52.302;8.134;2022-11-04T09:16:01;8.50;;;4.53;;
5813;SDS011;2933;52.302;8.134;2022-11-04T09:21:06;8.30;;;5.43;;
5813;SDS011;2933;52.302;8.134;2022-11-04T09:26:10;13.33;;;4.27;;
5813;SDS011;2933;52.302;8.134;2022-11-04T09:31:13;7.30;;;3.90;;
5813;SDS011;2933;52.302;8.134;2022-11-04T09:36:17;8.03;;;3.23;;
5813;SDS011;2933;52.302;8.134;2022-11-04T09:41:32;7.77;;;4.10;;
5813;SDS011;2933;52.302;8.134;2022-11-04T09:46:42;4.63;;;3.73;;
5813;SDS011;2933;52.302;8.134;2022-11-04T09:51:48;8.30;;;3.50;;
5813;SDS011;2933;52.302;8.134;2022-11-04T09:56:52;9.67;;;4.70;;
5813;SDS011;2933;52.302;8.134;2022-11-04T10:02:01;3.50;;;3.20;;
5813;SDS011;2933;52.302;8.134;2022-11-04T10:07:24;5.77;;;3.50;;
5813;SDS011;2933;52.302;8.134;2022-11-04T10:12:43;5.17;;;2.93;;
5813;SDS011;2933;52.302;8.134;2022-11-04T10:17:56;4.03;;;2.60;;
5813;SDS011;2933;52.302;8.134;2022-11-04T10:23:10;3.83;;;3.03;;
5813;SDS011;2933;52.302;8.134;2022-11-04T10:28:20;7.80;;;3.10;;
5813;SDS011;2933;52.302;8.134;2022-11-04T10:33:31;8.07;;;3.00;;
5813;SDS011;2933;52.302;8.134;2022-11-04T10:38:37;4.33;;;3.00;;
5813;SDS011;2933;52.302;8.134;2022-11-04T10:43:41;5.80;;;2.50;;
5813;SDS011;2933;52.302;8.134;2022-11-04T10:48:44;4.47;;;2.67;;
5813;SDS011;2933;52.302;8.134;2022-11-04T10:53:53;2.87;;;2.63;;
5813;SDS011;2933;52.302;8.134;2022-11-04T10:58:57;3.73;;;3.40;;
5813;SDS011;2933;52.302;8.134;2022-11-04T11:04:07;4.10;;;2.60;;
5813;SDS011;2933;52.302;8.134;2022-11-04T11:09:25;6.77;;;2.60;;
5813;SDS011;2933;52.302;8.134;2022-11-04T11:14:30;4.63;;;3.07;;
5813;SDS011;2933;52.302;8.134;2022-11-04T11:19:42;7.80;;;2.80;;
5813;SDS011;2933;52.302;8.134;2022-11-04T11:24:47;4.33;;;2.70;;
5813;SDS011;2933;52.302;8.134;2022-11-04T11:29:48;6.50;;;2.90;;
5813;SDS011;2933;52.302;8.134;2022-11-04T11:34:55;3.17;;;2.53;;
5813;SDS011;2933;52.302;8.134;2022-11-04T11:40:02;5.13;;;2.47;;
5813;SDS011;2933;52.302;8.134;2022-11-04T11:45:04;2.87;;;2.67;;
5813;SDS011;2933;52.302;8.134;2022-11-04T11:50:17;7.43;;;2.50;;
5813;SDS011;2933;52.302;8.134;2022-11-04T11:55:25;3.90;;;2.20;;
5813;SDS011;2933;52.302;8.134;2022-11-04T12:00:29;2.07;;;1.97;;
5813;SDS011;2933;52.302;8.134;2022-11-04T12:05:37;11.13;;;2.10;;
5813;SDS011;2933;52.302;8.134;2022-11-04T12:10:47;9.97;;;2.30;;
5813;SDS011;2933;52.302;8.134;2022-11-04T12:16:02;2.70;;;1.80;;
5813;SDS011;2933;52.302;8.134;2022-11-04T12:21:15;2.60;;;1.90;;
5813;SDS011;2933;52.302;8.134;2022-11-04T12:26:26;3.23;;;2.07;;
5813;SDS011;2933;52.302;8.134;2022-11-04T12:31:39;3.30;;;2.00;;
5813;SDS011;2933;52.302;8.134;2022-11-04T12:36:52;8.03;;;2.57;;
5813;SDS011;2933;52.302;8.134;2022-11-04T12:42:10;5.00;;;2.60;;
5813;SDS011;2933;52.302;8.134;2022-11-04T12:47:24;2.20;;;2.00;;
5813;SDS011;2933;52.302;8.134;2022-11-04T12:52:37;6.80;;;1.70;;
5813;SDS011;2933;52.302;8.134;2022-11-04T12:57:54;5.97;;;2.50;;
5813;SDS011;2933;52.302;8.134;2022-11-04T13:03:08;2.70;;;2.00;;
5813;SDS011;2933;52.302;8.134;2022-11-04T13:08:17;3.13;;;1.80;;
5813;SDS011;2933;52.302;8.134;2022-11-04T13:13:25;2.97;;;1.93;;
5813;SDS011;2933;52.302;8.134;2022-11-04T13:18:30;2.33;;;1.80;;
5813;SDS011;2933;52.302;8.134;2022-11-04T13:23:38;8.47;;;2.77;;
5813;SDS011;2933;52.302;8.134;2022-11-04T13:28:53;6.93;;;1.87;;
5813;SDS011;2933;52.302;8.134;2022-11-04T13:34:00;5.33;;;2.33;;
5813;SDS011;2933;52.302;8.134;2022-11-04T13:39:11;3.50;;;2.30;;
5813;SDS011;2933;52.302;8.134;2022-11-04T13:44:20;2.60;;;2.33;;
5813;SDS011;2933;52.302;8.134;2022-11-04T13:49:26;3.63;;;2.57;;
5813;SDS011;2933;52.302;8.134;2022-11-04T13:54:32;4.93;;;2.50;;
5813;SDS011;2933;52.302;8.134;2022-11-04T13:59:37;2.03;;;1.73;;
5813;SDS011;2933;52.302;8.134;2022-11-04T14:04:40;6.50;;;3.13;;
5813;SDS011;2933;52.302;8.134;2022-11-04T14:15:02;4.70;;;2.30;;
5813;SDS011;2933;52.302;8.134;2022-11-04T14:20:08;8.70;;;2.80;;
5813;SDS011;2933;52.302;8.134;2022-11-04T14:25:19;3.20;;;2.90;;
5813;SDS011;2933;52.302;8.134;2022-11-04T14:35:47;5.27;;;3.30;;
5813;SDS011;2933;52.302;8.134;2022-11-04T14:40:49;4.23;;;3.43;;
5813;SDS011;2933;52.302;8.134;2022-11-04T14:45:54;3.57;;;2.93;;
5813;SDS011;2933;52.302;8.134;2022-11-04T14:50:57;4.27;;;3.27;;
5813;SDS011;2933;52.302;8.134;2022-11-04T14:56:04;5.43;;;3.50;;
5813;SDS011;2933;52.302;8.134;2022-11-04T15:01:15;3.50;;;2.87;;
5813;SDS011;2933;52.302;8.134;2022-11-04T15:06:22;4.00;;;2.20;;
5813;SDS011;2933;52.302;8.134;2022-11-04T15:11:27;4.80;;;3.17;;
5813;SDS011;2933;52.302;8.134;2022-11-04T15:16:45;2.50;;;2.40;;
5813;SDS011;2933;52.302;8.134;2022-11-04T15:21:50;2.87;;;2.67;;
5813;SDS011;2933;52.302;8.134;2022-11-04T15:26:52;9.10;;;3.30;;
5813;SDS011;2933;52.302;8.134;2022-11-04T15:31:57;4.07;;;2.83;;
5813;SDS011;2933;52.302;8.134;2022-11-04T15:37:00;5.13;;;2.87;;
5813;SDS011;2933;52.302;8.134;2022-11-04T15:42:06;5.40;;;3.23;;
5813;SDS011;2933;52.302;8.134;2022-11-04T15:47:32;9.30;;;3.73;;
5813;SDS011;2933;52.302;8.134;2022-11-04T15:52:33;13.00;;;5.77;;
5813;SDS011;2933;52.302;8.134;2022-11-04T15:57:37;12.30;;;5.70;;
5813;SDS011;2933;52.302;8.134;2022-11-04T16:02:44;11.40;;;7.03;;
5813;SDS011;2933;52.302;8.134;2022-11-04T16:07:48;14.70;;;6.00;;
5813;SDS011;2933;52.302;8.134;2022-11-04T16:12:53;8.63;;;5.60;;
5813;SDS011;2933;52.302;8.134;2022-11-04T16:17:58;5.63;;;4.60;;
5813;SDS011;2933;52.302;8.134;2022-11-04T16:23:01;6.33;;;5.03;;
5813;SDS011;2933;52.302;8.134;2022-11-04T16:28:03;6.20;;;4.50;;
5813;SDS011;2933;52.302;8.134;2022-11-04T16:33:09;4.23;;;3.90;;
5813;SDS011;2933;52.302;8.134;2022-11-04T16:38:17;5.90;;;4.30;;
5813;SDS011;2933;52.302;8.134;2022-11-04T16:43:19;5.67;;;4.73;;
5813;SDS011;2933;52.302;8.134;2022-11-04T16:48:23;5.37;;;4.57;;
5813;SDS011;2933;52.302;8.134;2022-11-04T16:53:26;6.63;;;4.63;;
5813;SDS011;2933;52.302;8.134;2022-11-04T16:58:28;9.00;;;4.00;;
5813;SDS011;2933;52.302;8.134;2022-11-04T17:03:31;10.73;;;4.67;;
5813;SDS011;2933;52.302;8.134;2022-11-04T17:08:32;8.30;;;6.00;;
5813;SDS011;2933;52.302;8.134;2022-11-04T17:13:34;17.57;;;8.03;;
5813;SDS011;2933;52.302;8.134;2022-11-04T17:18:37;11.73;;;6.70;;
5813;SDS011;2933;52.302;8.134;2022-11-04T17:23:38;10.80;;;4.80;;
5813;SDS011;2933;52.302;8.134;2022-11-04T17:28:40;5.53;;;4.70;;
5813;SDS011;2933;52.302;8.134;2022-11-04T17:33:43;8.53;;;5.13;;
5813;SDS011;2933;52.302;8.134;2022-11-04T17:38:46;9.70;;;5.23;;
5813;SDS011;2933;52.302;8.134;2022-11-04T17:43:48;9.97;;;5.90;;
5813;SDS011;2933;52.302;8.134;2022-11-04T17:49:04;15.70;;;7.97;;
5813;SDS011;2933;52.302;8.134;2022-11-04T17:54:08;12.70;;;6.10;;
5813;SDS011;2933;52.302;8.134;2022-11-04T17:59:10;10.77;;;7.33;;
5813;SDS011;2933;52.302;8.134;2022-11-04T18:04:15;14.23;;;8.03;;
5813;SDS011;2933;52.302;8.134;2022-11-04T18:09:17;18.53;;;8.57;;
5813;SDS011;2933;52.302;8.134;2022-11-04T18:14:19;18.70;;;8.30;;
5813;SDS011;2933;52.302;8.134;2022-11-04T18:19:22;19.60;;;9.33;;
5813;SDS011;2933;52.302;8.134;2022-11-04T18:24:24;14.90;;;8.77;;
5813;SDS011;2933;52.302;8.134;2022-11-04T18:29:26;18.23;;;8.20;;
5813;SDS011;2933;52.302;8.134;2022-11-04T18:34:30;13.10;;;9.43;;
5813;SDS011;2933;52.302;8.134;2022-11-04T18:39:38;11.37;;;6.40;;
5813;SDS011;2933;52.302;8.134;2022-11-04T18:44:40;9.87;;;6.10;;
5813;SDS011;2933;52.302;8.134;2022-11-04T18:49:46;16.00;;;6.30;;
5813;SDS011;2933;52.302;8.134;2022-11-04T18:54:48;10.77;;;5.30;;
5813;SDS011;2933;52.302;8.134;2022-11-04T18:59:50;11.33;;;5.13;;
5813;SDS011;2933;52.302;8.134;2022-11-04T19:04:54;8.30;;;5.20;;
5813;SDS011;2933;52.302;8.134;2022-11-04T19:10:00;8.00;;;5.37;;
5813;SDS011;2933;52.302;8.134;2022-11-04T19:15:05;7.20;;;4.50;;
5813;SDS011;2933;52.302;8.134;2022-11-04T19:20:09;6.60;;;4.93;;
5813;SDS011;2933;52.302;8.134;2022-11-04T19:25:11;8.70;;;4.00;;
5813;SDS011;2933;52.302;8.134;2022-11-04T19:30:13;7.50;;;4.30;;
5813;SDS011;2933;52.302;8.134;2022-11-04T19:35:16;5.57;;;3.90;;
5813;SDS011;2933;52.302;8.134;2022-11-04T19:40:18;6.47;;;4.30;;
5813;SDS011;2933;52.302;8.134;2022-11-04T19:45:20;9.50;;;4.27;;
5813;SDS011;2933;52.302;8.134;2022-11-04T19:50:23;8.43;;;4.07;;
5813;SDS011;2933;52.302;8.134;2022-11-04T19:55:25;6.57;;;4.20;;
5813;SDS011;2933;52.302;8.134;2022-11-04T20:00:29;5.87;;;3.90;;
5813;SDS011;2933;52.302;8.134;2022-11-04T20:05:36;7.23;;;3.40;;
5813;SDS011;2933;52.302;8.134;2022-11-04T20:10:39;6.03;;;3.30;;
5813;SDS011;2933;52.302;8.134;2022-11-04T20:15:42;10.80;;;4.20;;
5813;SDS011;2933;52.302;8.134;2022-11-04T20:20:45;5.57;;;3.53;;
5813;SDS011;2933;52.302;8.134;2022-11-04T20:25:46;8.80;;;3.77;;
5813;SDS011;2933;52.302;8.134;2022-11-04T20:30:52;4.80;;;4.20;;
5813;SDS011;2933;52.302;8.134;2022-11-04T20:35:55;5.37;;;4.17;;
5813;SDS011;2933;52.302;8.134;2022-11-04T20:41:00;6.90;;;4.17;;
5813;SDS011;2933;52.302;8.134;2022-11-04T20:46:03;6.67;;;4.83;;
5813;SDS011;2933;52.302;8.134;2022-11-04T20:51:08;8.87;;;4.50;;
5813;SDS011;2933;52.302;8.134;2022-11-04T20:56:12;9.23;;;4.60;;
5813;SDS011;2933;52.302;8.134;2022-11-04T21:01:16;7.17;;;5.37;;
5813;SDS011;2933;52.302;8.134;2022-11-04T21:06:22;12.20;;;5.23;;
5813;SDS011;2933;52.302;8.134;2022-11-04T21:11:26;11.13;;;5.07;;
5813;SDS011;2933;52.302;8.134;2022-11-04T21:16:31;5.23;;;4.23;;
5813;SDS011;2933;52.302;8.134;2022-11-04T21:21:35;6.47;;;4.50;;
5813;SDS011;2933;52.302;8.134;2022-11-04T21:26:37;5.60;;;4.57;;
5813;SDS011;2933;52.302;8.134;2022-11-04T21:31:39;6.93;;;4.30;;
5813;SDS011;2933;52.302;8.134;2022-11-04T21:36:42;5.03;;;4.47;;
5813;SDS011;2933;52.302;8.134;2022-11-04T21:41:44;6.00;;;4.83;;
5813;SDS011;2933;52.302;8.134;2022-11-04T21:46:46;4.83;;;4.30;;
5813;SDS011;2933;52.302;8.134;2022-11-04T21:51:51;7.07;;;4.77;;
5813;SDS011;2933;52.302;8.134;2022-11-04T21:56:53;4.80;;;4.40;;
5813;SDS011;2933;52.302;8.134;2022-11-04T22:01:54;5.97;;;4.50;;
5813;SDS011;2933;52.302;8.134;2022-11-04T22:06:57;7.80;;;4.63;;
5813;SDS011;2933;52.302;8.134;2022-11-04T22:11:58;8.70;;;4.90;;
5813;SDS011;2933;52.302;8.134;2022-11-04T22:17:00;6.27;;;4.37;;
5813;SDS011;2933;52.302;8.134;2022-11-04T22:22:03;5.23;;;4.57;;
5813;SDS011;2933;52.302;8.134;2022-11-04T22:27:05;9.53;;;5.50;;
5813;SDS011;2933;52.302;8.134;2022-11-04T22:32:06;8.30;;;5.50;;
5813;SDS011;2933;52.302;8.134;2022-11-04T22:37:09;15.17;;;5.70;;
5813;SDS011;2933;52.302;8.134;2022-11-04T22:42:11;7.07;;;4.60;;
5813;SDS011;2933;52.302;8.134;2022-11-04T22:47:12;13.37;;;6.00;;
5813;SDS011;2933;52.302;8.134;2022-11-04T22:52:15;7.77;;;5.47;;
5813;SDS011;2933;52.302;8.134;2022-11-04T22:57:17;12.97;;;6.67;;
5813;SDS011;2933;52.302;8.134;2022-11-04T23:02:18;9.00;;;6.20;;
5813;SDS011;2933;52.302;8.134;2022-11-04T23:07:21;9.50;;;5.87;;
5813;SDS011;2933;52.302;8.134;2022-11-04T23:12:23;18.60;;;6.47;;
5813;SDS011;2933;52.302;8.134;2022-11-04T23:17:42;10.30;;;5.60;;
5813;SDS011;2933;52.302;8.134;2022-11-04T23:23:07;11.10;;;5.60;;
5813;SDS011;2933;52.302;8.134;2022-11-04T23:28:27;6.87;;;5.33;;
5813;SDS011;2933;52.302;8.134;2022-11-04T23:33:45;6.93;;;5.03;;
5813;SDS011;2933;52.302;8.134;2022-11-04T23:39:06;8.70;;;5.80;;
5813;SDS011;2933;52.302;8.134;2022-11-04T23:44:07;6.33;;;5.43;;
5813;SDS011;2933;52.302;8.134;2022-11-04T23:49:29;8.00;;;5.40;;
5813;SDS011;2933;52.302;8.134;2022-11-04T23:54:48;8.17;;;5.30;;
